Time;durP1;ratioP1;P1;durP2;ratioP2;P2;SDS_P1;SDS_P2;PMS_P1;PMS_P2;Temp;Humidity;BMP_temperature;BMP_pressure;BME280_temperature;BME280_humidity;BME280_pressure;Samples;Min_cycle;Max_cycle;Signal;HPM_P1;HPM_P2
2022/07/29 00:01:03;;;;;;;;;5.00;5.00;;;;;;;;5050607;28;46306;-64
2022/07/29 00:03:28;;;;;;;;;5.25;4.00;;;;;;;;5053645;28;45440;-63
2022/07/29 00:05:53;;;;;;;;;3.50;3.50;;;;;;;;5053850;28;45703;-64
2022/07/29 00:08:19;;;;;;;;;5.50;4.00;;;;;;;;5053595;28;45516;-63
2022/07/29 00:10:44;;;;;;;;;3.50;3.50;;;;;;;;5053426;28;46414;-63
2022/07/29 00:13:09;;;;;;;;;6.25;6.25;;;;;;;;5053410;28;45359;-63
2022/07/29 00:15:35;;;;;;;;;11.75;10.75;;;;;;;;5053570;28;45646;-63
2022/07/29 00:18:00;;;;;;;;;8.25;7.50;;;;;;;;5052031;28;45439;-63
2022/07/29 00:20:25;;;;;;;;;11.25;10.00;;;;;;;;5052962;28;45460;-63
2022/07/29 00:22:51;;;;;;;;;9.00;9.00;;;;;;;;5051919;28;45420;-64
2022/07/29 00:25:16;;;;;;;;;6.75;6.75;;;;;;;;5051963;28;46133;-64
2022/07/29 00:27:41;;;;;;;;;8.25;8.25;;;;;;;;5051760;28;45439;-64
2022/07/29 00:30:07;;;;;;;;;5.75;5.75;;;;;;;;5053049;28;45514;-63
2022/07/29 00:32:32;;;;;;;;;6.50;6.50;;;;;;;;5053131;28;45460;-64
2022/07/29 00:37:41;;;;;;;;;7.75;7.75;;;;;;;;5053139;28;45401;-63
2022/07/29 00:40:07;;;;;;;;;7.00;6.00;;;;;;;;5052981;28;45987;-63
2022/07/29 00:42:41;;;;;;;;;9.50;8.50;;;;;;;;5053014;28;45476;-64
2022/07/29 00:45:06;;;;;;;;;9.75;9.25;;;;;;;;5053253;28;45266;-64
2022/07/29 00:47:32;;;;;;;;;8.50;8.50;;;;;;;;5052976;28;45397;-63
2022/07/29 00:49:57;;;;;;;;;9.25;9.25;;;;;;;;5052935;28;45438;-63
2022/07/29 00:52:22;;;;;;;;;7.75;6.00;;;;;;;;5053045;28;45258;-63
2022/07/29 00:54:47;;;;;;;;;1.00;1.00;;;;;;;;5053145;28;45434;-63
2022/07/29 00:57:13;;;;;;;;;11.25;9.25;;;;;;;;5052945;28;45312;-63
2022/07/29 00:59:38;;;;;;;;;10.25;9.00;;;;;;;;5051535;28;47390;-63
2022/07/29 01:02:03;;;;;;;;;8.75;7.25;;;;;;;;5051327;28;45345;-63
2022/07/29 01:04:29;;;;;;;;;10.75;9.25;;;;;;;;5051550;28;45318;-63
2022/07/29 01:06:54;;;;;;;;;8.00;8.00;;;;;;;;5052970;28;45342;-63
2022/07/29 01:09:20;;;;;;;;;7.75;7.00;;;;;;;;5052602;28;45656;-63
2022/07/29 01:11:47;;;;;;;;;10.75;10.75;;;;;;;;5052494;28;45468;-63
2022/07/29 01:14:12;;;;;;;;;9.25;9.25;;;;;;;;5052806;28;45402;-63
2022/07/29 01:16:48;;;;;;;;;9.25;8.75;;;;;;;;5051489;28;45493;-63
2022/07/29 01:19:37;;;;;;;;;10.75;9.75;;;;;;;;5051301;28;48980;-63
2022/07/29 01:22:14;;;;;;;;;12.75;10.00;;;;;;;;5040179;28;46268;-62
2022/07/29 01:24:48;;;;;;;;;9.00;9.00;;;;;;;;5052809;28;45658;-62
2022/07/29 01:27:28;;;;;;;;;7.00;7.00;;;;;;;;5052671;28;45414;-62
2022/07/29 01:29:55;;;;;;;;;8.50;7.50;;;;;;;;5050958;28;46411;-63
2022/07/29 01:32:24;;;;;;;;;11.50;9.50;;;;;;;;5052186;28;45393;-62
2022/07/29 01:34:54;;;;;;;;;9.00;9.00;;;;;;;;5052386;28;45390;-62
2022/07/29 01:37:19;;;;;;;;;8.50;8.50;;;;;;;;5052124;28;45523;-63
2022/07/29 01:39:46;;;;;;;;;7.75;7.00;;;;;;;;5052258;28;46226;-63
2022/07/29 01:42:20;;;;;;;;;6.00;6.00;;;;;;;;5052408;28;45428;-63
2022/07/29 01:45:12;;;;;;;;;10.00;10.00;;;;;;;;5052577;28;45427;-63
2022/07/29 01:47:46;;;;;;;;;9.00;9.00;;;;;;;;5049138;28;45389;-63
2022/07/29 01:50:14;;;;;;;;;11.25;11.25;;;;;;;;5052032;28;45397;-64
2022/07/29 01:52:44;;;;;;;;;12.25;10.00;;;;;;;;5052256;28;45422;-62
2022/07/29 01:55:13;;;;;;;;;10.00;10.00;;;;;;;;5052311;28;45461;-63
2022/07/29 01:57:40;;;;;;;;;8.00;8.00;;;;;;;;5052173;28;45560;-63
2022/07/29 02:00:06;;;;;;;;;13.25;12.00;;;;;;;;5052010;28;46505;-64
2022/07/29 02:02:32;;;;;;;;;9.25;7.00;;;;;;;;5050926;28;46013;-62
2022/07/29 02:04:59;;;;;;;;;12.25;10.75;;;;;;;;5052322;28;45518;-63
2022/07/29 02:07:27;;;;;;;;;7.00;7.00;;;;;;;;5050793;28;45490;-62
2022/07/29 02:09:53;;;;;;;;;11.00;9.25;;;;;;;;5052010;28;46462;-62
2022/07/29 02:12:19;;;;;;;;;11.50;8.75;;;;;;;;5051771;28;45414;-62
2022/07/29 02:14:48;;;;;;;;;9.25;7.25;;;;;;;;5050661;28;45564;-63
2022/07/29 02:17:18;;;;;;;;;6.75;6.75;;;;;;;;5052043;28;45478;-62
2022/07/29 02:19:44;;;;;;;;;9.50;9.00;;;;;;;;5050479;28;48682;-63
2022/07/29 02:22:10;;;;;;;;;11.50;9.75;;;;;;;;5051697;28;45409;-63
2022/07/29 02:24:37;;;;;;;;;6.00;6.00;;;;;;;;5051261;28;45529;-62
2022/07/29 02:27:03;;;;;;;;;7.25;7.25;;;;;;;;5051871;28;45507;-62
2022/07/29 02:29:29;;;;;;;;;9.75;9.00;;;;;;;;5051599;28;46169;-62
2022/07/29 02:31:57;;;;;;;;;6.50;6.50;;;;;;;;5050329;28;45346;-62
2022/07/29 02:34:23;;;;;;;;;7.75;7.75;;;;;;;;5051733;28;45489;-63
2022/07/29 02:36:49;;;;;;;;;9.00;7.75;;;;;;;;5051260;28;45401;-63
2022/07/29 02:39:14;;;;;;;;;7.00;6.50;;;;;;;;5051342;28;46659;-63
2022/07/29 02:41:43;;;;;;;;;7.25;6.00;;;;;;;;5051463;28;45364;-63
2022/07/29 02:44:14;;;;;;;;;6.00;6.00;;;;;;;;5051929;28;45494;-63
2022/07/29 02:46:43;;;;;;;;;5.75;5.25;;;;;;;;5051464;28;45480;-63
2022/07/29 02:49:20;;;;;;;;;6.50;5.00;;;;;;;;5051495;28;46815;-63
2022/07/29 02:51:49;;;;;;;;;10.50;8.75;;;;;;;;5051536;28;45364;-64
2022/07/29 02:54:22;;;;;;;;;9.00;8.25;;;;;;;;5051503;28;45480;-63
2022/07/29 02:56:48;;;;;;;;;9.25;9.25;;;;;;;;5050071;28;45561;-63
2022/07/29 02:59:15;;;;;;;;;8.25;6.75;;;;;;;;5051084;28;46453;-63
2022/07/29 03:01:43;;;;;;;;;8.50;6.50;;;;;;;;5051225;28;45700;-63
2022/07/29 03:04:09;;;;;;;;;7.00;7.00;;;;;;;;5051350;28;45594;-63
2022/07/29 03:06:35;;;;;;;;;5.50;5.50;;;;;;;;5051254;28;45461;-63
2022/07/29 03:09:00;;;;;;;;;7.50;6.75;;;;;;;;5051150;28;46270;-63
2022/07/29 03:11:26;;;;;;;;;6.75;6.75;;;;;;;;5051004;28;45338;-62
2022/07/29 03:13:51;;;;;;;;;9.00;6.75;;;;;;;;5051307;28;45384;-63
2022/07/29 03:16:19;;;;;;;;;7.50;7.50;;;;;;;;5049740;28;45607;-62
2022/07/29 03:18:44;;;;;;;;;7.00;6.25;;;;;;;;5051029;28;45862;-62
2022/07/29 03:21:09;;;;;;;;;8.00;7.50;;;;;;;;5050833;28;45459;-63
2022/07/29 03:23:35;;;;;;;;;8.00;8.00;;;;;;;;5049857;28;45460;-63
2022/07/29 03:26:00;;;;;;;;;9.00;8.25;;;;;;;;5051059;28;45472;-62
2022/07/29 03:28:27;;;;;;;;;6.00;6.00;;;;;;;;5050867;28;47284;-63
2022/07/29 03:30:52;;;;;;;;;9.50;7.50;;;;;;;;5050797;28;45492;-63
2022/07/29 03:33:17;;;;;;;;;8.00;8.00;;;;;;;;5049464;28;45433;-62
2022/07/29 03:35:43;;;;;;;;;9.00;7.75;;;;;;;;5051873;28;45376;-61
2022/07/29 03:38:08;;;;;;;;;8.00;8.00;;;;;;;;5053672;28;45838;-62
2022/07/29 03:40:46;;;;;;;;;8.50;6.75;;;;;;;;5052512;28;45504;-62
2022/07/29 03:43:13;;;;;;;;;7.00;7.00;;;;;;;;5054066;28;45277;-62
2022/07/29 03:45:38;;;;;;;;;9.00;9.00;;;;;;;;5053750;28;45308;-62
2022/07/29 03:48:07;;;;;;;;;8.50;8.50;;;;;;;;5053694;28;46420;-63
2022/07/29 03:50:33;;;;;;;;;6.50;6.00;;;;;;;;5054073;28;45823;-62
2022/07/29 03:52:58;;;;;;;;;7.25;7.25;;;;;;;;5053804;28;45392;-62
2022/07/29 03:55:25;;;;;;;;;8.00;6.50;;;;;;;;5053623;28;45354;-62
2022/07/29 03:57:50;;;;;;;;;6.75;6.75;;;;;;;;5053568;28;46530;-62
2022/07/29 04:00:15;;;;;;;;;9.75;8.50;;;;;;;;5052323;28;46209;-62
2022/07/29 04:02:44;;;;;;;;;9.00;6.25;;;;;;;;5052554;28;45378;-62
2022/07/29 04:05:13;;;;;;;;;7.25;6.00;;;;;;;;5053701;28;45660;-62
2022/07/29 04:07:39;;;;;;;;;6.00;6.00;;;;;;;;5053519;28;46790;-62
2022/07/29 04:10:04;;;;;;;;;12.00;8.00;;;;;;;;5052204;28;45336;-62
2022/07/29 04:12:30;;;;;;;;;8.75;7.25;;;;;;;;5053904;28;45989;-63
2022/07/29 04:14:55;;;;;;;;;12.50;10.50;;;;;;;;5052221;28;45279;-63
2022/07/29 04:17:20;;;;;;;;;9.25;8.25;;;;;;;;5053379;28;45523;-63
2022/07/29 04:19:45;;;;;;;;;10.00;10.00;;;;;;;;5053562;28;45384;-63
2022/07/29 04:22:10;;;;;;;;;10.50;9.50;;;;;;;;5053757;28;45560;-63
2022/07/29 04:24:36;;;;;;;;;10.50;9.50;;;;;;;;5052323;28;45368;-63
2022/07/29 04:27:01;;;;;;;;;12.25;11.25;;;;;;;;5053211;28;45596;-63
2022/07/29 04:29:26;;;;;;;;;9.00;9.00;;;;;;;;5053070;28;45372;-63
2022/07/29 04:31:51;;;;;;;;;8.00;8.00;;;;;;;;5053592;28;45305;-62
2022/07/29 04:34:17;;;;;;;;;8.75;8.00;;;;;;;;5053391;28;45531;-62
2022/07/29 04:36:42;;;;;;;;;12.00;10.75;;;;;;;;5052638;28;47713;-62
2022/07/29 04:39:07;;;;;;;;;11.00;10.00;;;;;;;;5053255;28;46307;-62
2022/07/29 04:41:32;;;;;;;;;7.00;7.00;;;;;;;;5053136;28;45484;-62
2022/07/29 04:44:00;;;;;;;;;8.25;8.25;;;;;;;;5053221;28;45480;-62
2022/07/29 04:46:25;;;;;;;;;10.00;10.00;;;;;;;;5052343;28;45866;-61
2022/07/29 04:48:50;;;;;;;;;10.25;10.25;;;;;;;;5052873;28;45527;-62
2022/07/29 04:51:16;;;;;;;;;7.00;7.00;;;;;;;;5053371;28;45403;-62
2022/07/29 04:53:41;;;;;;;;;8.75;7.75;;;;;;;;5053049;28;45580;-62
2022/07/29 04:56:06;;;;;;;;;9.50;9.25;;;;;;;;5053057;28;46860;-62
2022/07/29 04:58:33;;;;;;;;;9.75;9.00;;;;;;;;5052889;28;45401;-62
2022/07/29 05:00:59;;;;;;;;;5.50;5.50;;;;;;;;5053073;28;45564;-63
2022/07/29 05:03:24;;;;;;;;;8.25;8.25;;;;;;;;5051495;28;45551;-61
2022/07/29 05:05:49;;;;;;;;;8.75;7.25;;;;;;;;5052947;28;45605;-62
2022/07/29 05:08:14;;;;;;;;;8.00;6.00;;;;;;;;5052896;28;45872;-61
2022/07/29 05:10:39;;;;;;;;;12.75;9.25;;;;;;;;5052768;28;45642;-63
2022/07/29 05:13:06;;;;;;;;;8.75;8.75;;;;;;;;5051702;28;45585;-63
2022/07/29 05:15:31;;;;;;;;;8.75;8.75;;;;;;;;5049517;28;46755;-61
2022/07/29 05:17:57;;;;;;;;;10.00;10.00;;;;;;;;5037368;28;45478;-63
2022/07/29 05:20:26;;;;;;;;;9.50;8.00;;;;;;;;5042245;28;45617;-62
2022/07/29 05:22:51;;;;;;;;;9.75;7.50;;;;;;;;5034996;28;45932;-63
2022/07/29 05:25:16;;;;;;;;;10.00;9.00;;;;;;;;5037987;28;45735;-62
2022/07/29 05:27:41;;;;;;;;;10.25;9.75;;;;;;;;5052087;28;45385;-63
2022/07/29 05:30:07;;;;;;;;;5.75;5.25;;;;;;;;5051655;28;45376;-62
2022/07/29 05:32:32;;;;;;;;;10.25;7.50;;;;;;;;5052649;28;45426;-63
2022/07/29 05:34:57;;;;;;;;;6.00;6.00;;;;;;;;5042615;27;46851;-64
2022/07/29 05:37:23;;;;;;;;;7.00;7.00;;;;;;;;5041824;28;45513;-65
2022/07/29 05:39:48;;;;;;;;;3.00;3.00;;;;;;;;5032538;28;45378;-64
2022/07/29 05:42:14;;;;;;;;;8.25;7.50;;;;;;;;5032260;28;45547;-64
2022/07/29 05:44:39;;;;;;;;;7.00;7.00;;;;;;;;5030907;28;48415;-64
2022/07/29 05:47:04;;;;;;;;;7.25;7.25;;;;;;;;5032149;28;45388;-64
2022/07/29 05:49:29;;;;;;;;;5.75;5.75;;;;;;;;5034547;28;45397;-64
2022/07/29 05:51:55;;;;;;;;;9.00;7.00;;;;;;;;5040817;28;45692;-64
2022/07/29 05:54:20;;;;;;;;;7.75;7.75;;;;;;;;5031959;28;45865;-63
2022/07/29 05:56:45;;;;;;;;;7.25;7.25;;;;;;;;5030566;28;45410;-63
2022/07/29 05:59:11;;;;;;;;;7.00;7.00;;;;;;;;5030968;28;45384;-63
2022/07/29 06:01:39;;;;;;;;;6.75;6.75;;;;;;;;5042361;28;45313;-63
2022/07/29 06:04:04;;;;;;;;;6.00;6.00;;;;;;;;5039180;28;47467;-63
2022/07/29 06:06:29;;;;;;;;;6.75;6.75;;;;;;;;5034383;28;45421;-63
2022/07/29 06:08:54;;;;;;;;;5.25;5.25;;;;;;;;5040828;28;45393;-63
2022/07/29 06:11:20;;;;;;;;;5.00;5.00;;;;;;;;5032224;28;45493;-63
2022/07/29 06:13:45;;;;;;;;;7.50;5.00;;;;;;;;5039343;27;45721;-63
2022/07/29 06:16:10;;;;;;;;;5.50;5.50;;;;;;;;5041109;28;45514;-63
2022/07/29 06:18:35;;;;;;;;;6.00;6.00;;;;;;;;5036712;28;45540;-64
2022/07/29 06:21:01;;;;;;;;;8.75;8.75;;;;;;;;5032107;28;45401;-63
2022/07/29 06:23:26;;;;;;;;;7.00;7.00;;;;;;;;5031857;28;46381;-63
2022/07/29 06:25:51;;;;;;;;;6.50;6.50;;;;;;;;5034737;28;46083;-64
2022/07/29 06:28:16;;;;;;;;;8.75;7.00;;;;;;;;5052022;28;45419;-64
2022/07/29 06:30:41;;;;;;;;;10.00;9.00;;;;;;;;5051880;28;45362;-63
2022/07/29 06:33:07;;;;;;;;;9.00;8.00;;;;;;;;5051666;28;45490;-62
2022/07/29 06:35:35;;;;;;;;;9.00;9.00;;;;;;;;5051691;28;45646;-62
2022/07/29 06:38:01;;;;;;;;;8.50;8.50;;;;;;;;5051883;28;45348;-63
2022/07/29 06:43:10;;;;;;;;;8.75;8.25;;;;;;;;5051692;28;45785;-63
2022/07/29 06:45:36;;;;;;;;;6.50;6.50;;;;;;;;5051558;28;45467;-63
2022/07/29 06:48:01;;;;;;;;;6.25;6.25;;;;;;;;5050492;28;45695;-63
2022/07/29 06:50:26;;;;;;;;;8.25;6.50;;;;;;;;5051383;28;45427;-63
2022/07/29 06:52:51;;;;;;;;;8.25;8.25;;;;;;;;5049859;28;48456;-63
2022/07/29 06:55:19;;;;;;;;;10.75;9.50;;;;;;;;5051421;28;45416;-63
2022/07/29 06:57:44;;;;;;;;;6.00;5.00;;;;;;;;5051262;28;45570;-63
2022/07/29 07:00:09;;;;;;;;;6.75;5.50;;;;;;;;5051140;28;45503;-63
2022/07/29 07:02:34;;;;;;;;;5.25;5.25;;;;;;;;5051042;28;46698;-63
2022/07/29 07:05:00;;;;;;;;;6.00;6.00;;;;;;;;5050978;28;45394;-63
2022/07/29 07:07:25;;;;;;;;;7.00;7.00;;;;;;;;5051292;28;45707;-62
2022/07/29 07:09:50;;;;;;;;;7.50;5.50;;;;;;;;5052431;28;45390;-64
2022/07/29 07:12:15;;;;;;;;;6.00;6.00;;;;;;;;5054136;28;45292;-62
2022/07/29 07:14:41;;;;;;;;;9.75;8.25;;;;;;;;5054119;28;45456;-62
2022/07/29 07:17:06;;;;;;;;;8.25;6.50;;;;;;;;5054383;28;45550;-62
2022/07/29 07:19:32;;;;;;;;;6.00;6.00;;;;;;;;5054009;28;45644;-63
2022/07/29 07:21:57;;;;;;;;;9.00;7.00;;;;;;;;5053847;28;45788;-63
2022/07/29 07:24:22;;;;;;;;;8.75;7.25;;;;;;;;5054062;28;45445;-62
2022/07/29 07:26:47;;;;;;;;;8.00;7.25;;;;;;;;5053671;28;45466;-63
2022/07/29 07:29:13;;;;;;;;;7.50;7.50;;;;;;;;5054220;28;45439;-62
2022/07/29 07:31:38;;;;;;;;;6.50;5.25;;;;;;;;5053880;28;46247;-64
2022/07/29 07:34:04;;;;;;;;;9.00;6.00;;;;;;;;5052675;28;45393;-64
2022/07/29 07:36:29;;;;;;;;;9.25;9.25;;;;;;;;5053978;28;45445;-64
2022/07/29 07:38:54;;;;;;;;;9.25;8.50;;;;;;;;5053934;28;45425;-63
2022/07/29 07:41:20;;;;;;;;;6.00;6.00;;;;;;;;5050632;28;46233;-65
2022/07/29 07:43:46;;;;;;;;;6.00;5.50;;;;;;;;5053068;28;45674;-65
2022/07/29 07:46:11;;;;;;;;;5.00;5.00;;;;;;;;5053113;28;45432;-64
2022/07/29 07:48:36;;;;;;;;;7.00;6.25;;;;;;;;5052976;28;45367;-64
2022/07/29 07:51:02;;;;;;;;;5.00;3.75;;;;;;;;5053201;28;45663;-64
2022/07/29 07:53:34;;;;;;;;;6.00;6.00;;;;;;;;5052435;28;45365;-63
2022/07/29 07:56:00;;;;;;;;;8.25;6.50;;;;;;;;5051708;28;45402;-63
2022/07/29 07:58:25;;;;;;;;;6.00;6.00;;;;;;;;5052201;28;45467;-63
2022/07/29 08:00:50;;;;;;;;;8.75;7.00;;;;;;;;5046101;28;47168;-64
2022/07/29 08:03:15;;;;;;;;;6.75;5.75;;;;;;;;5044460;28;45439;-64
2022/07/29 08:05:40;;;;;;;;;6.75;6.50;;;;;;;;5033650;28;45673;-63
2022/07/29 08:08:06;;;;;;;;;3.75;3.75;;;;;;;;5039925;27;45570;-63
2022/07/29 08:13:15;;;;;;;;;6.50;6.50;;;;;;;;5033410;28;45386;-63
2022/07/29 08:15:42;;;;;;;;;5.50;5.50;;;;;;;;5033317;28;45883;-64
2022/07/29 08:18:07;;;;;;;;;5.75;5.75;;;;;;;;5038233;28;45311;-64
2022/07/29 08:20:35;;;;;;;;;5.25;5.00;;;;;;;;5036383;28;48542;-63
2022/07/29 08:23:00;;;;;;;;;5.25;5.00;;;;;;;;5032845;28;45751;-64
2022/07/29 08:25:25;;;;;;;;;5.75;5.75;;;;;;;;5033887;28;45390;-61
2022/07/29 08:27:50;;;;;;;;;5.25;4.00;;;;;;;;5033517;28;45363;-62
2022/07/29 08:30:16;;;;;;;;;3.75;3.75;;;;;;;;5042452;28;45477;-62
2022/07/29 08:32:41;;;;;;;;;4.25;4.00;;;;;;;;5032525;28;45404;-62
2022/07/29 08:35:06;;;;;;;;;8.25;5.75;;;;;;;;5033434;28;45374;-62
2022/07/29 08:37:31;;;;;;;;;7.00;5.25;;;;;;;;5072899;27;45420;-63
2022/07/29 08:39:57;;;;;;;;;6.25;6.25;;;;;;;;5113412;27;46494;-63
2022/07/29 08:42:22;;;;;;;;;4.00;4.00;;;;;;;;5114603;27;45666;-63
2022/07/29 08:44:48;;;;;;;;;4.00;4.00;;;;;;;;5107523;27;45371;-62
2022/07/29 08:47:16;;;;;;;;;4.50;3.75;;;;;;;;5123348;27;45830;-63
2022/07/29 08:49:41;;;;;;;;;3.25;3.25;;;;;;;;5109030;27;46655;-61
2022/07/29 08:52:09;;;;;;;;;4.25;4.00;;;;;;;;5111409;27;45377;-63
2022/07/29 08:54:35;;;;;;;;;4.00;3.75;;;;;;;;5115875;27;45484;-62
2022/07/29 08:57:00;;;;;;;;;6.50;4.50;;;;;;;;5110122;27;45535;-62
2022/07/29 08:59:27;;;;;;;;;2.00;2.00;;;;;;;;5113116;27;46465;-62
2022/07/29 09:01:53;;;;;;;;;2.00;2.00;;;;;;;;5121281;27;45988;-63
2022/07/29 09:04:18;;;;;;;;;3.00;3.00;;;;;;;;5109617;27;45452;-62
2022/07/29 09:06:45;;;;;;;;;4.25;3.25;;;;;;;;5081218;27;45466;-60
2022/07/29 09:09:11;;;;;;;;;5.25;4.00;;;;;;;;5072417;27;45853;-61
2022/07/29 09:11:37;;;;;;;;;5.00;5.00;;;;;;;;5072749;27;45364;-61
2022/07/29 09:14:02;;;;;;;;;2.00;2.00;;;;;;;;5071729;28;45268;-61
2022/07/29 09:16:43;;;;;;;;;1.00;1.00;;;;;;;;5073279;27;45411;-61
2022/07/29 09:19:20;;;;;;;;;3.00;3.00;;;;;;;;5103886;27;45392;-62
2022/07/29 09:21:58;;;;;;;;;3.00;3.00;;;;;;;;5103439;27;45783;-61
2022/07/29 09:24:24;;;;;;;;;3.00;3.00;;;;;;;;5102659;27;45607;-61
2022/07/29 09:26:49;;;;;;;;;4.00;4.00;;;;;;;;5082048;27;45622;-61
2022/07/29 09:29:18;;;;;;;;;4.00;4.00;;;;;;;;5072087;27;45756;-61
2022/07/29 09:31:44;;;;;;;;;3.00;3.00;;;;;;;;5071512;28;45416;-60
2022/07/29 09:34:10;;;;;;;;;3.50;3.50;;;;;;;;5071846;27;45390;-61
2022/07/29 09:36:40;;;;;;;;;5.00;4.00;;;;;;;;5072264;27;45704;-61
2022/07/29 09:39:05;;;;;;;;;3.75;3.75;;;;;;;;5072813;27;45626;-61
2022/07/29 09:41:43;;;;;;;;;3.00;3.00;;;;;;;;5048890;27;45661;-61
2022/07/29 09:44:08;;;;;;;;;3.75;3.00;;;;;;;;5042752;28;45598;-63
2022/07/29 09:46:34;;;;;;;;;3.00;3.00;;;;;;;;5031221;28;45509;-60
2022/07/29 09:49:09;;;;;;;;;2.00;2.00;;;;;;;;5042563;27;47583;-62
2022/07/29 09:51:35;;;;;;;;;3.00;3.00;;;;;;;;5041068;28;45382;-62
2022/07/29 09:54:03;;;;;;;;;2.75;2.75;;;;;;;;5050004;28;45392;-62
2022/07/29 09:56:38;;;;;;;;;2.75;2.75;;;;;;;;5041072;28;45449;-62
2022/07/29 09:59:06;;;;;;;;;1.75;1.75;;;;;;;;5031506;28;45379;-62
2022/07/29 10:01:32;;;;;;;;;2.75;2.75;;;;;;;;5036456;28;45585;-62
2022/07/29 10:03:57;;;;;;;;;2.00;2.00;;;;;;;;5039452;28;45459;-62
2022/07/29 10:06:22;;;;;;;;;1.75;1.75;;;;;;;;5030788;28;45513;-61
2022/07/29 10:08:49;;;;;;;;;1.50;1.50;;;;;;;;5033483;28;45653;-62
2022/07/29 10:11:18;;;;;;;;;2.00;2.00;;;;;;;;5051936;28;45273;-61
2022/07/29 10:13:44;;;;;;;;;1.25;1.25;;;;;;;;5051879;28;45348;-60
2022/07/29 10:16:10;;;;;;;;;3.00;2.25;;;;;;;;5048947;28;45457;-60
2022/07/29 10:18:37;;;;;;;;;1.00;1.00;;;;;;;;5049879;28;47852;-62
2022/07/29 10:21:03;;;;;;;;;3.50;2.50;;;;;;;;5051686;28;45504;-62
2022/07/29 10:23:29;;;;;;;;;2.00;2.00;;;;;;;;5051975;28;45491;-62
2022/07/29 10:25:55;;;;;;;;;2.00;2.00;;;;;;;;5051500;28;45401;-61
2022/07/29 10:28:20;;;;;;;;;1.75;1.75;;;;;;;;5050109;28;48389;-62
2022/07/29 10:30:46;;;;;;;;;2.00;2.00;;;;;;;;5049689;28;45280;-61
2022/07/29 10:33:17;;;;;;;;;2.00;2.00;;;;;;;;5050474;28;45430;-60
2022/07/29 10:35:43;;;;;;;;;2.00;2.00;;;;;;;;5051564;27;45789;-62
2022/07/29 10:38:20;;;;;;;;;1.25;1.25;;;;;;;;5049880;28;47574;-62
2022/07/29 10:43:40;;;;;;;;;1.75;1.75;;;;;;;;5051324;28;45499;-61
2022/07/29 10:46:06;;;;;;;;;3.25;3.00;;;;;;;;5051201;28;45436;-61
2022/07/29 10:48:31;;;;;;;;;3.00;1.75;;;;;;;;5051309;28;47443;-62
2022/07/29 10:50:58;;;;;;;;;3.00;3.00;;;;;;;;5051545;28;45351;-63
2022/07/29 10:53:24;;;;;;;;;2.50;2.50;;;;;;;;5050220;28;45722;-61
2022/07/29 10:55:51;;;;;;;;;3.50;2.25;;;;;;;;5050321;28;45661;-61
2022/07/29 10:58:20;;;;;;;;;2.75;2.75;;;;;;;;5051448;28;46427;-61
2022/07/29 11:00:46;;;;;;;;;1.75;1.75;;;;;;;;5049893;28;45658;-62
2022/07/29 11:03:30;;;;;;;;;3.50;1.75;;;;;;;;5051465;28;45416;-62
2022/07/29 11:05:56;;;;;;;;;5.00;3.25;;;;;;;;5051350;28;45658;-62
2022/07/29 11:08:23;;;;;;;;;1.00;1.00;;;;;;;;5051156;28;47227;-61
2022/07/29 11:10:48;;;;;;;;;2.00;2.00;;;;;;;;5051344;28;45473;-62
2022/07/29 11:13:33;;;;;;;;;3.75;3.75;;;;;;;;5049961;28;45382;-62
2022/07/29 11:15:59;;;;;;;;;3.00;3.00;;;;;;;;5049889;28;45634;-61
2022/07/29 11:18:24;;;;;;;;;3.50;3.50;;;;;;;;5050947;28;46398;-62
2022/07/29 11:20:52;;;;;;;;;2.25;2.25;;;;;;;;5049716;28;45718;-62
2022/07/29 11:23:23;;;;;;;;;3.00;3.00;;;;;;;;5049785;28;45531;-61
2022/07/29 11:26:07;;;;;;;;;2.75;2.75;;;;;;;;5050867;28;45455;-62
2022/07/29 11:28:34;;;;;;;;;3.00;3.00;;;;;;;;5050753;28;47297;-61
2022/07/29 11:30:59;;;;;;;;;3.00;3.00;;;;;;;;5049544;28;45504;-61
2022/07/29 11:33:31;;;;;;;;;2.25;2.25;;;;;;;;5050938;28;45489;-62
2022/07/29 11:36:10;;;;;;;;;2.25;2.25;;;;;;;;5051968;28;45444;-63
2022/07/29 11:38:35;;;;;;;;;2.00;2.00;;;;;;;;5042437;27;46661;-61
2022/07/29 11:41:20;;;;;;;;;5.00;3.25;;;;;;;;5031061;28;45366;-62
2022/07/29 11:43:46;;;;;;;;;3.75;3.75;;;;;;;;5030891;28;45469;-62
2022/07/29 11:46:11;;;;;;;;;3.00;3.00;;;;;;;;5030757;28;45382;-62
2022/07/29 11:48:41;;;;;;;;;2.50;2.50;;;;;;;;5030490;28;46714;-61
2022/07/29 11:51:09;;;;;;;;;2.25;2.25;;;;;;;;5030664;28;45653;-62
2022/07/29 11:53:35;;;;;;;;;3.00;3.00;;;;;;;;5030567;28;45497;-62
2022/07/29 11:56:01;;;;;;;;;3.50;3.00;;;;;;;;5030580;28;45397;-62
2022/07/29 11:58:27;;;;;;;;;4.00;2.25;;;;;;;;5033192;28;46446;-61
2022/07/29 12:00:52;;;;;;;;;5.25;4.50;;;;;;;;5033362;28;45473;-61
2022/07/29 12:03:24;;;;;;;;;2.75;2.75;;;;;;;;5038752;28;45501;-61
2022/07/29 12:05:49;;;;;;;;;3.00;3.00;;;;;;;;5070166;27;45450;-62
2022/07/29 12:08:18;;;;;;;;;2.00;2.00;;;;;;;;5102288;27;48000;-62
2022/07/29 12:10:43;;;;;;;;;3.00;3.00;;;;;;;;5157906;27;46204;-62
2022/07/29 12:13:09;;;;;;;;;3.00;3.00;;;;;;;;5101281;27;45426;-62
2022/07/29 12:15:35;;;;;;;;;4.00;3.00;;;;;;;;5041384;28;45317;-63
2022/07/29 12:18:09;;;;;;;;;1.75;1.75;;;;;;;;5033012;28;46002;-63
2022/07/29 12:20:34;;;;;;;;;2.00;2.00;;;;;;;;5033111;28;45426;-61
2022/07/29 12:23:04;;;;;;;;;2.25;2.25;;;;;;;;5033094;28;45446;-62
2022/07/29 12:25:33;;;;;;;;;2.00;2.00;;;;;;;;5034871;28;45340;-62
2022/07/29 12:28:02;;;;;;;;;2.00;2.00;;;;;;;;5053277;28;46601;-62
2022/07/29 12:30:35;;;;;;;;;2.50;2.50;;;;;;;;5053044;28;45388;-62
2022/07/29 12:33:00;;;;;;;;;3.00;2.00;;;;;;;;5051665;28;45501;-62
2022/07/29 12:35:25;;;;;;;;;2.25;2.00;;;;;;;;5052793;28;45507;-63
2022/07/29 12:37:52;;;;;;;;;3.00;3.00;;;;;;;;5052900;28;46625;-63
2022/07/29 12:40:17;;;;;;;;;2.50;2.00;;;;;;;;5051847;28;45423;-62
2022/07/29 12:43:01;;;;;;;;;3.00;3.00;;;;;;;;5052831;28;45375;-62
2022/07/29 12:45:30;;;;;;;;;2.00;2.00;;;;;;;;5051794;28;45385;-62
2022/07/29 12:47:55;;;;;;;;;2.00;2.00;;;;;;;;5052852;28;46555;-62
2022/07/29 12:50:21;;;;;;;;;3.50;3.25;;;;;;;;5052801;28;45413;-62
2022/07/29 12:52:47;;;;;;;;;9.00;8.75;;;;;;;;5052803;28;45304;-63
2022/07/29 12:55:12;;;;;;;;;2.75;2.75;;;;;;;;5051660;28;45440;-63
2022/07/29 12:57:45;;;;;;;;;3.50;3.50;;;;;;;;5052509;28;45539;-63
2022/07/29 13:00:12;;;;;;;;;7.25;6.75;;;;;;;;5052627;28;45775;-63
2022/07/29 13:02:38;;;;;;;;;4.00;4.00;;;;;;;;5052752;28;45604;-63
2022/07/29 13:05:04;;;;;;;;;3.00;3.00;;;;;;;;5051406;28;45517;-63
2022/07/29 13:07:32;;;;;;;;;2.50;2.50;;;;;;;;5052187;28;46547;-63
2022/07/29 13:10:17;;;;;;;;;2.00;2.00;;;;;;;;5052454;28;45362;-63
2022/07/29 13:13:01;;;;;;;;;1.25;1.25;;;;;;;;5052020;28;45319;-62
2022/07/29 13:15:26;;;;;;;;;2.00;2.00;;;;;;;;5050070;28;45510;-63
2022/07/29 13:17:52;;;;;;;;;3.25;3.00;;;;;;;;5052743;28;45893;-63
2022/07/29 13:20:17;;;;;;;;;3.00;3.00;;;;;;;;5052620;28;45424;-63
2022/07/29 13:22:42;;;;;;;;;3.50;3.50;;;;;;;;5052767;28;45347;-63
2022/07/29 13:25:08;;;;;;;;;2.75;2.75;;;;;;;;5052566;28;45419;-62
2022/07/29 13:27:36;;;;;;;;;2.50;2.50;;;;;;;;5051799;28;45537;-63
2022/07/29 13:30:02;;;;;;;;;4.25;3.50;;;;;;;;5052300;28;45365;-63
2022/07/29 13:32:29;;;;;;;;;4.25;4.25;;;;;;;;5052139;28;45381;-63
2022/07/29 13:34:58;;;;;;;;;2.00;2.00;;;;;;;;5052390;28;45394;-63
2022/07/29 13:37:24;;;;;;;;;2.50;2.00;;;;;;;;5052093;28;46166;-63
2022/07/29 13:39:49;;;;;;;;;2.00;2.00;;;;;;;;5052238;28;45680;-63
2022/07/29 13:42:14;;;;;;;;;4.00;4.00;;;;;;;;5052330;28;45451;-63
2022/07/29 13:44:40;;;;;;;;;3.00;3.00;;;;;;;;5052640;28;45420;-62
2022/07/29 13:47:06;;;;;;;;;3.00;3.00;;;;;;;;5052620;28;46399;-62
2022/07/29 13:49:31;;;;;;;;;4.00;4.00;;;;;;;;5052493;28;45352;-62
2022/07/29 13:51:56;;;;;;;;;4.25;4.25;;;;;;;;5051228;28;45378;-61
2022/07/29 13:54:21;;;;;;;;;2.00;2.00;;;;;;;;5052374;28;45296;-62
2022/07/29 13:56:47;;;;;;;;;3.00;3.00;;;;;;;;5051038;28;45423;-62
2022/07/29 13:59:12;;;;;;;;;2.75;2.75;;;;;;;;5052354;28;45332;-62
2022/07/29 14:01:38;;;;;;;;;3.75;3.00;;;;;;;;5052000;28;45446;-62
2022/07/29 14:04:03;;;;;;;;;3.75;3.75;;;;;;;;5050820;28;45464;-63
2022/07/29 14:06:29;;;;;;;;;4.00;4.00;;;;;;;;5051728;28;47136;-62
2022/07/29 14:08:54;;;;;;;;;2.00;2.00;;;;;;;;5060731;27;45500;-63
2022/07/29 14:11:19;;;;;;;;;4.25;4.00;;;;;;;;5072460;27;45512;-62
2022/07/29 14:13:44;;;;;;;;;3.25;3.25;;;;;;;;5063480;28;45705;-62
2022/07/29 14:16:10;;;;;;;;;6.00;3.50;;;;;;;;5033928;28;48759;-62
2022/07/29 14:18:35;;;;;;;;;3.50;3.50;;;;;;;;5039925;28;45474;-63
2022/07/29 14:21:00;;;;;;;;;3.00;3.00;;;;;;;;5047907;28;45498;-63
2022/07/29 14:23:25;;;;;;;;;3.75;3.75;;;;;;;;5050939;28;45560;-63
2022/07/29 14:25:51;;;;;;;;;2.00;2.00;;;;;;;;5049446;28;47323;-62
2022/07/29 14:28:16;;;;;;;;;5.00;3.00;;;;;;;;5049991;28;45332;-62
2022/07/29 14:30:41;;;;;;;;;3.75;2.25;;;;;;;;5051402;28;45596;-62
2022/07/29 14:33:07;;;;;;;;;4.50;3.75;;;;;;;;5051918;28;45361;-62
2022/07/29 14:35:33;;;;;;;;;3.00;3.00;;;;;;;;5032917;28;46496;-62
2022/07/29 14:37:58;;;;;;;;;3.00;3.00;;;;;;;;5051406;28;45509;-62
2022/07/29 14:40:25;;;;;;;;;2.00;2.00;;;;;;;;5051423;28;45402;-62
2022/07/29 14:42:50;;;;;;;;;3.50;3.50;;;;;;;;5051253;28;45437;-63
2022/07/29 14:45:16;;;;;;;;;4.00;4.00;;;;;;;;5051107;28;46343;-63
2022/07/29 14:47:41;;;;;;;;;2.75;2.75;;;;;;;;5051557;28;45416;-63
2022/07/29 14:50:07;;;;;;;;;2.00;2.00;;;;;;;;5051403;28;45362;-63